Time;durP1;ratioP1;P1;durP2;ratioP2;P2;SDS_P1;SDS_P2;PMS_P1;PMS_P2;Temp;Humidity;BMP_temperature;BMP_pressure;BME280_temperature;BME280_humidity;BME280_pressure;Samples;Min_cycle;Max_cycle;Signal;HPM_P1;HPM_P2
2022/02/11 00:04:41;;;;;;;22.33;4.60;;;4.20;99.90;;;;;;5029558;28;20022;-56
2022/02/11 00:09:24;;;;;;;23.90;5.10;;;4.20;99.90;;;;;;5029617;28;20057;-55
2022/02/11 00:11:50;;;;;;;20.17;3.78;;;4.20;99.90;;;;;;5029552;28;20573;-53
2022/02/11 00:14:17;;;;;;;24.98;4.07;;;4.20;99.90;;;;;;5029577;28;20036;-54
2022/02/11 00:16:42;;;;;;;29.50;4.35;;;4.10;99.90;;;;;;5029278;28;20037;-54
2022/02/11 00:19:08;;;;;;;19.60;3.88;;;4.10;99.90;;;;;;5029955;28;20120;-53
2022/02/11 00:21:34;;;;;;;27.02;3.78;;;4.00;99.90;;;;;;5029562;28;20120;-56
2022/02/11 00:24:00;;;;;;;22.58;4.25;;;4.00;99.90;;;;;;5029281;28;20076;-55
2022/02/11 00:26:36;;;;;;;19.50;4.22;;;4.00;99.90;;;;;;5028867;28;20133;-53
2022/02/11 00:34:26;;;;;;;25.00;4.47;;;3.90;99.90;;;;;;5030028;28;20037;-56
2022/02/11 00:37:04;;;;;;;22.20;3.90;;;3.90;99.90;;;;;;5027244;28;20494;-57
2022/02/11 01:05:53;;;;;;;23.08;3.90;;;3.90;99.90;;;;;;5028278;28;20029;-56
2022/02/11 01:08:18;;;;;;;20.77;3.80;;;3.90;99.90;;;;;;5028743;28;20033;-52
2022/02/11 01:10:45;;;;;;;23.88;4.30;;;3.80;99.90;;;;;;5028042;28;20030;-52
2022/02/11 01:13:11;;;;;;;17.45;4.00;;;3.80;99.90;;;;;;5028955;28;20030;-53
2022/02/11 01:15:40;;;;;;;22.70;4.15;;;3.80;99.90;;;;;;5027860;28;20029;-53
2022/02/11 01:18:08;;;;;;;23.45;3.65;;;3.70;99.90;;;;;;5029023;28;20037;-56
2022/02/11 01:23:27;;;;;;;25.58;3.65;;;3.70;99.90;;;;;;5028743;28;20380;-55
2022/02/11 01:31:11;;;;;;;21.65;4.38;;;3.60;99.90;;;;;;5028622;28;20765;-54
2022/02/11 01:55:30;;;;;;;26.42;4.72;;;3.50;99.90;;;;;;5032012;28;20031;-54
2022/02/11 02:17:01;;;;;;;27.40;4.82;;;3.30;99.90;;;;;;5031760;28;20449;-52
2022/02/11 02:24:28;;;;;;;32.67;6.00;;;3.20;99.90;;;;;;5031737;28;20025;-52
2022/02/11 03:34:41;;;;;;;31.50;7.00;;;3.00;99.90;;;;;;5031256;28;20044;-52
2022/02/11 04:08:09;;;;;;;21.48;6.25;;;2.90;99.90;;;;;;5028944;28;20039;-54
2022/02/11 04:26:37;;;;;;;27.05;6.07;;;2.90;99.90;;;;;;5030018;28;20065;-50
2022/02/11 04:56:22;;;;;;;30.80;7.63;;;2.90;99.90;;;;;;4986686;28;20045;-53
2022/02/11 05:01:32;;;;;;;25.85;7.22;;;2.90;99.90;;;;;;4994806;28;20060;-53
2022/02/11 05:03:58;;;;;;;27.02;7.13;;;2.90;99.90;;;;;;5028388;28;20037;-57
2022/02/11 05:06:23;;;;;;;26.95;6.60;;;2.90;99.90;;;;;;5028148;28;20034;-57
2022/02/11 05:08:49;;;;;;;22.33;6.38;;;3.00;99.90;;;;;;5028660;28;20029;-56
2022/02/11 05:11:15;;;;;;;26.35;6.75;;;3.00;99.90;;;;;;5029279;28;20080;-55
2022/02/11 05:13:41;;;;;;;21.23;6.43;;;3.00;99.90;;;;;;5027165;28;20041;-57
2022/02/11 05:16:06;;;;;;;30.45;8.55;;;3.00;99.90;;;;;;5028271;28;20029;-55
2022/02/11 05:18:32;;;;;;;22.33;7.30;;;3.00;99.90;;;;;;5030795;28;20041;-55
2022/02/11 05:20:58;;;;;;;26.58;8.07;;;3.10;99.90;;;;;;5032412;28;20040;-54
2022/02/11 05:23:23;;;;;;;26.00;7.45;;;3.00;99.90;;;;;;5032647;28;20116;-56
2022/02/11 05:25:49;;;;;;;25.75;7.78;;;3.00;99.90;;;;;;5032078;28;20044;-55
2022/02/11 05:28:15;;;;;;;32.65;8.00;;;3.00;99.90;;;;;;5032803;28;20475;-55
2022/02/11 05:30:42;;;;;;;29.73;7.32;;;3.10;99.90;;;;;;5031990;28;20064;-60
2022/02/11 05:33:07;;;;;;;33.33;7.80;;;3.00;99.90;;;;;;5028617;28;20033;-50
2022/02/11 05:35:35;;;;;;;27.83;6.95;;;3.20;99.90;;;;;;5023831;28;20037;-59
2022/02/11 05:38:01;;;;;;;25.38;7.32;;;3.20;99.90;;;;;;5026745;28;20031;-57
2022/02/11 05:40:27;;;;;;;24.48;7.55;;;3.20;99.90;;;;;;5030541;28;20076;-59
2022/02/11 05:42:53;;;;;;;28.23;8.02;;;3.10;99.90;;;;;;5029822;28;20463;-60
2022/02/11 05:45:18;;;;;;;22.67;7.45;;;3.10;99.90;;;;;;5022701;28;20088;-59
2022/02/11 05:47:44;;;;;;;41.45;8.07;;;3.10;99.90;;;;;;5021567;28;20114;-59
2022/02/11 05:50:10;;;;;;;34.03;8.13;;;3.10;99.90;;;;;;5032225;28;20529;-60
2022/02/11 05:52:36;;;;;;;26.23;7.38;;;3.10;99.90;;;;;;5022043;28;20080;-60
2022/02/11 05:55:03;;;;;;;37.53;8.93;;;3.10;99.90;;;;;;5023480;28;20388;-60
2022/02/11 05:57:29;;;;;;;30.52;8.60;;;3.10;99.90;;;;;;5023866;28;20054;-62
2022/02/11 05:59:55;;;;;;;26.10;7.28;;;3.10;99.90;;;;;;5030610;28;20061;-60
2022/02/11 06:02:21;;;;;;;33.67;8.70;;;3.20;99.90;;;;;;5023502;28;20392;-60
2022/02/11 06:04:47;;;;;;;24.33;7.75;;;3.20;99.90;;;;;;5032918;28;20037;-59
2022/02/11 06:07:14;;;;;;;33.50;7.90;;;3.20;99.90;;;;;;5023965;28;20052;-58
2022/02/11 06:09:40;;;;;;;22.42;6.60;;;3.20;99.90;;;;;;5022738;28;20033;-58
2022/02/11 06:12:06;;;;;;;30.92;7.93;;;3.20;99.90;;;;;;5029418;28;20032;-62
2022/02/11 06:14:33;;;;;;;29.90;7.88;;;3.20;99.90;;;;;;5031443;28;20033;-60
2022/02/11 06:16:59;;;;;;;28.50;7.78;;;3.20;99.90;;;;;;5030612;28;20170;-60
2022/02/11 06:19:25;;;;;;;35.95;9.45;;;3.30;99.90;;;;;;5031342;28;20511;-59
2022/02/11 06:21:50;;;;;;;30.63;8.45;;;3.30;99.90;;;;;;5031331;28;20113;-57
2022/02/11 06:24:16;;;;;;;34.22;9.30;;;3.30;99.90;;;;;;5022699;28;20120;-57
2022/02/11 06:26:42;;;;;;;27.15;8.52;;;3.30;99.90;;;;;;5030290;28;20379;-58
2022/02/11 06:29:07;;;;;;;33.28;8.68;;;3.40;99.90;;;;;;5022137;28;20057;-57
2022/02/11 06:31:33;;;;;;;18.63;7.50;;;3.40;99.90;;;;;;5026169;28;20084;-57
2022/02/11 06:33:59;;;;;;;22.23;8.60;;;3.40;99.90;;;;;;5035490;28;20554;-59
2022/02/11 06:36:24;;;;;;;23.88;8.80;;;3.40;99.90;;;;;;5029792;28;20030;-58
2022/02/11 06:38:50;;;;;;;34.42;9.05;;;3.50;99.90;;;;;;5036774;28;20063;-59
2022/02/11 06:41:15;;;;;;;28.52;9.57;;;3.40;99.90;;;;;;5024586;28;20076;-59
2022/02/11 06:43:41;;;;;;;31.27;10.45;;;3.40;99.90;;;;;;5017278;28;20116;-59
2022/02/11 06:46:07;;;;;;;32.50;9.77;;;3.40;99.90;;;;;;5021663;28;20041;-57
2022/02/11 06:48:33;;;;;;;27.90;9.20;;;3.40;99.90;;;;;;5030466;28;20033;-60
2022/02/11 06:50:59;;;;;;;29.33;9.45;;;3.40;99.90;;;;;;5019402;28;20038;-61
2022/02/11 06:53:25;;;;;;;32.97;10.02;;;3.40;99.90;;;;;;5026564;28;20060;-57
2022/02/11 06:55:51;;;;;;;27.60;9.88;;;3.60;99.90;;;;;;5015723;28;20141;-57
2022/02/11 06:58:17;;;;;;;33.88;10.75;;;3.60;99.90;;;;;;5020660;28;20024;-59
2022/02/11 07:00:49;;;;;;;31.83;9.73;;;3.60;99.90;;;;;;5030130;28;20025;-61
2022/02/11 07:03:16;;;;;;;23.23;9.57;;;3.50;99.90;;;;;;5031276;28;20049;-61
2022/02/11 07:05:42;;;;;;;30.13;9.13;;;3.50;99.90;;;;;;5027770;28;20512;-59
2022/02/11 07:08:08;;;;;;;31.27;9.48;;;3.50;99.90;;;;;;5030805;28;20108;-59
2022/02/11 07:10:34;;;;;;;31.40;9.82;;;3.50;99.90;;;;;;5028257;28;20029;-59
2022/02/11 07:13:00;;;;;;;26.25;9.45;;;3.40;99.90;;;;;;5026280;28;20029;-58
2022/02/11 07:15:26;;;;;;;25.65;9.00;;;3.50;99.90;;;;;;5024019;28;20053;-61
2022/02/11 07:17:52;;;;;;;31.23;10.57;;;3.40;99.90;;;;;;5022103;28;20014;-61
2022/02/11 07:20:18;;;;;;;24.73;9.88;;;3.50;99.90;;;;;;5028927;28;20083;-61
2022/02/11 07:22:44;;;;;;;23.80;9.55;;;3.50;99.90;;;;;;5012425;28;20022;-60
2022/02/11 07:25:12;;;;;;;33.78;10.25;;;3.50;99.90;;;;;;5029074;28;20507;-61
2022/02/11 07:27:38;;;;;;;23.60;9.27;;;3.50;99.90;;;;;;5029583;28;20030;-60
2022/02/11 07:30:05;;;;;;;34.20;9.15;;;3.60;99.90;;;;;;5029890;28;20043;-59
2022/02/11 07:32:31;;;;;;;30.48;10.27;;;3.70;99.90;;;;;;5028864;28;20053;-60
2022/02/11 07:35:03;;;;;;;25.70;9.38;;;3.70;99.90;;;;;;5029219;28;20030;-56
2022/02/11 07:37:30;;;;;;;28.55;10.30;;;3.70;99.90;;;;;;5028358;28;20448;-58
2022/02/11 07:39:57;;;;;;;23.83;10.02;;;3.70;99.90;;;;;;5029390;28;20040;-57
2022/02/11 07:42:25;;;;;;;28.80;10.02;;;3.70;99.90;;;;;;5029093;28;20151;-58
2022/02/11 07:44:52;;;;;;;22.65;9.45;;;3.70;99.90;;;;;;5027119;28;20041;-59
2022/02/11 07:47:17;;;;;;;28.35;9.15;;;3.80;99.90;;;;;;5023567;28;20029;-60
2022/02/11 07:49:43;;;;;;;24.52;10.32;;;3.80;99.90;;;;;;5035911;28;20036;-57
2022/02/11 07:52:09;;;;;;;28.08;10.60;;;3.80;99.90;;;;;;5025610;28;20137;-58
2022/02/11 07:54:34;;;;;;;33.50;11.05;;;3.80;99.90;;;;;;5027960;28;20060;-56
2022/02/11 07:57:00;;;;;;;26.45;10.20;;;3.80;99.90;;;;;;5027924;28;20094;-56
2022/02/11 07:59:26;;;;;;;34.45;11.40;;;3.90;99.90;;;;;;5024686;28;20018;-57
2022/02/11 08:01:52;;;;;;;31.90;10.15;;;3.90;99.90;;;;;;5019973;28;20026;-58
2022/02/11 08:04:17;;;;;;;30.00;9.93;;;3.90;99.90;;;;;;5029580;28;20055;-58
2022/02/11 08:06:43;;;;;;;25.83;9.25;;;3.90;99.90;;;;;;5019838;28;20037;-58
2022/02/11 08:09:08;;;;;;;25.33;10.10;;;3.90;99.90;;;;;;5029475;28;20022;-58
2022/02/11 08:11:34;;;;;;;28.38;10.18;;;3.80;99.90;;;;;;5020422;28;20037;-58
2022/02/11 08:14:00;;;;;;;29.88;9.60;;;3.80;99.90;;;;;;5029258;28;20839;-58
2022/02/11 08:16:26;;;;;;;30.85;10.45;;;3.80;99.90;;;;;;5021194;28;20114;-59
2022/02/11 08:18:52;;;;;;;27.08;9.98;;;3.80;99.90;;;;;;5028114;28;20487;-58
2022/02/11 08:21:17;;;;;;;28.85;9.77;;;3.80;99.90;;;;;;5022910;28;20037;-59
2022/02/11 08:23:44;;;;;;;26.42;10.07;;;3.80;99.90;;;;;;5018373;28;20044;-59
2022/02/11 08:26:10;;;;;;;28.02;9.70;;;3.80;99.90;;;;;;5023114;28;20052;-59
2022/02/11 08:28:36;;;;;;;32.38;10.75;;;3.80;99.90;;;;;;5023710;28;20491;-57
2022/02/11 08:31:02;;;;;;;23.65;10.15;;;3.80;99.90;;;;;;5017640;28;20174;-60
2022/02/11 08:33:28;;;;;;;33.75;9.80;;;3.90;99.90;;;;;;5011611;28;20462;-60
2022/02/11 08:35:56;;;;;;;27.33;10.13;;;3.90;99.90;;;;;;5018459;28;20048;-59
2022/02/11 08:38:23;;;;;;;34.08;9.98;;;3.90;99.90;;;;;;5020515;28;20021;-60
2022/02/11 08:40:49;;;;;;;24.20;8.77;;;3.90;99.90;;;;;;5027881;28;20454;-58
2022/02/11 08:43:15;;;;;;;25.50;9.30;;;3.90;99.90;;;;;;5022687;28;20092;-59
2022/02/11 08:45:41;;;;;;;23.10;9.23;;;3.90;99.90;;;;;;5017513;28;20069;-60
2022/02/11 08:48:12;;;;;;;22.83;7.53;;;3.90;99.90;;;;;;5027454;28;20060;-60
2022/02/11 08:50:39;;;;;;;22.95;8.07;;;4.00;99.90;;;;;;5019742;28;20477;-60
2022/02/11 08:53:08;;;;;;;20.73;8.45;;;4.00;99.90;;;;;;5028490;28;20700;-60
2022/02/11 08:55:35;;;;;;;17.02;7.40;;;4.10;99.90;;;;;;5019548;28;20038;-60
2022/02/11 08:58:04;;;;;;;19.48;6.60;;;4.10;99.90;;;;;;5028759;28;20061;-59
2022/02/11 09:00:31;;;;;;;18.33;7.53;;;4.00;99.90;;;;;;5019712;28;20037;-59
2022/02/11 09:02:58;;;;;;;18.67;8.15;;;4.00;99.90;;;;;;5027789;28;20030;-59
2022/02/11 09:05:25;;;;;;;20.65;7.78;;;4.00;99.90;;;;;;5020727;28;20034;-61
2022/02/11 09:07:55;;;;;;;19.48;8.45;;;4.00;99.90;;;;;;5026979;28;20091;-61
2022/02/11 09:10:23;;;;;;;20.15;8.45;;;4.10;99.90;;;;;;5021890;28;20100;-62
2022/02/11 09:12:49;;;;;;;19.38;8.70;;;4.00;99.90;;;;;;5025577;28;20076;-62
2022/02/11 09:15:15;;;;;;;21.52;7.68;;;4.00;99.90;;;;;;5021280;28;20033;-62
2022/02/11 09:17:41;;;;;;;18.13;8.45;;;4.00;99.90;;;;;;5018096;28;20033;-59
2022/02/11 09:20:07;;;;;;;22.00;8.85;;;4.00;99.90;;;;;;5023751;28;20045;-62
2022/02/11 09:22:33;;;;;;;19.00;8.48;;;4.00;99.90;;;;;;5024512;28;20037;-60
2022/02/11 09:24:59;;;;;;;16.45;7.78;;;4.00;99.90;;;;;;5024038;28;20072;-60
2022/02/11 09:27:24;;;;;;;28.25;10.45;;;4.10;99.90;;;;;;5023158;28;20045;-60
2022/02/11 09:29:50;;;;;;;28.38;12.05;;;4.10;99.90;;;;;;5025606;28;20037;-60
2022/02/11 09:32:16;;;;;;;34.70;12.40;;;4.20;99.90;;;;;;5022274;28;20072;-60
2022/02/11 09:34:42;;;;;;;32.55;12.90;;;4.20;99.90;;;;;;5019065;28;20392;-60
2022/02/11 09:37:08;;;;;;;33.42;14.02;;;4.20;99.90;;;;;;5026208;28;20033;-60
2022/02/11 09:39:34;;;;;;;40.90;15.00;;;4.20;99.90;;;;;;5027066;28;20037;-58
2022/02/11 09:41:59;;;;;;;33.53;14.55;;;4.20;99.90;;;;;;5027293;28;20487;-58
2022/02/11 09:44:27;;;;;;;30.15;13.20;;;4.20;99.90;;;;;;5029986;28;20065;-60
2022/02/11 09:46:55;;;;;;;34.33;13.50;;;4.20;99.90;;;;;;5027561;28;20049;-61
2022/02/11 09:49:21;;;;;;;36.38;13.32;;;4.20;99.90;;;;;;5027872;28;20188;-58
2022/02/11 09:51:50;;;;;;;33.00;14.90;;;4.20;99.90;;;;;;5028019;28;20133;-60
2022/02/11 09:54:20;;;;;;;34.42;15.27;;;4.20;99.90;;;;;;5023983;28;20040;-55
2022/02/11 09:56:46;;;;;;;31.95;14.25;;;4.20;99.90;;;;;;5025939;28;20072;-59
2022/02/11 09:59:11;;;;;;;33.40;14.75;;;4.20;99.90;;;;;;5028703;28;20091;-55
2022/02/11 10:01:42;;;;;;;32.58;15.57;;;4.20;99.90;;;;;;5025790;28;20033;-60
2022/02/11 10:04:14;;;;;;;31.58;15.35;;;4.30;99.90;;;;;;5021034;28;20042;-58
2022/02/11 10:06:39;;;;;;;31.93;15.40;;;4.30;99.90;;;;;;5028120;28;20412;-60
2022/02/11 10:09:05;;;;;;;39.42;16.13;;;4.30;99.90;;;;;;5031773;28;20386;-60
2022/02/11 10:11:32;;;;;;;40.30;15.10;;;4.30;99.90;;;;;;5031284;28;20026;-61
2022/02/11 10:14:16;;;;;;;40.00;15.25;;;4.40;99.90;;;;;;5024377;28;20037;-62
2022/02/11 10:16:58;;;;;;;34.38;15.55;;;4.40;99.90;;;;;;5035908;28;20720;-62
2022/02/11 10:19:57;;;;;;;33.88;16.98;;;4.40;99.90;;;;;;5031188;28;20033;-62
2022/02/11 10:22:23;;;;;;;33.08;15.38;;;4.40;99.90;;;;;;4989752;28;20120;-62
2022/02/11 10:24:50;;;;;;;42.70;17.60;;;4.40;99.90;;;;;;5017434;28;20416;-59
2022/02/11 10:27:16;;;;;;;35.85;18.05;;;4.40;99.90;;;;;;5010216;28;20033;-62
2022/02/11 10:29:42;;;;;;;34.90;17.20;;;4.40;99.90;;;;;;5014655;28;20623;-62
2022/02/11 10:32:08;;;;;;;46.25;16.55;;;4.40;99.90;;;;;;5020123;28;20060;-60
2022/02/11 10:34:34;;;;;;;34.70;14.90;;;4.40;99.90;;;;;;5012440;28;20406;-59
2022/02/11 10:37:07;;;;;;;31.90;13.63;;;4.50;99.90;;;;;;5010648;28;20022;-58
2022/02/11 10:39:35;;;;;;;30.40;13.43;;;4.60;99.90;;;;;;5011453;28;20045;-61
2022/02/11 10:42:10;;;;;;;25.90;12.10;;;4.80;99.90;;;;;;5010142;28;20034;-58
2022/02/11 10:44:39;;;;;;;33.40;13.55;;;5.00;99.90;;;;;;5010789;28;20151;-61
2022/02/11 10:47:12;;;;;;;31.33;12.40;;;5.00;99.90;;;;;;5017008;28;20510;-56
2022/02/11 10:49:40;;;;;;;31.27;12.98;;;5.00;99.90;;;;;;5011198;28;20648;-58
2022/02/11 10:52:08;;;;;;;25.40;11.82;;;5.00;99.90;;;;;;5011232;28;20506;-59
2022/02/11 10:54:34;;;;;;;27.83;11.90;;;5.00;99.90;;;;;;5012754;28;20370;-60
2022/02/11 10:57:03;;;;;;;23.13;11.60;;;5.10;99.90;;;;;;5007684;28;20037;-59
2022/02/11 10:59:29;;;;;;;34.10;14.18;;;5.20;99.90;;;;;;5010854;28;20038;-60
2022/02/11 11:01:57;;;;;;;29.25;11.70;;;5.30;99.90;;;;;;5016774;28;20041;-60
2022/02/11 11:04:23;;;;;;;25.42;11.65;;;5.30;99.90;;;;;;5018783;28;20522;-61
2022/02/11 11:06:50;;;;;;;24.98;10.90;;;5.30;99.90;;;;;;5010972;28;20080;-61
2022/02/11 11:09:16;;;;;;;26.45;11.27;;;5.40;99.90;;;;;;5012295;28;20478;-60
2022/02/11 11:11:46;;;;;;;20.05;10.05;;;5.40;99.90;;;;;;5011634;28;20040;-60
2022/02/11 11:14:13;;;;;;;21.73;9.70;;;5.40;99.90;;;;;;5016089;28;20033;-61
2022/02/11 11:16:40;;;;;;;23.15;10.18;;;5.40;99.90;;;;;;5010847;28;20037;-60
2022/02/11 11:19:07;;;;;;;25.27;10.23;;;5.40;99.90;;;;;;5026080;28;20038;-61
2022/02/11 11:21:39;;;;;;;16.42;9.43;;;5.40;99.90;;;;;;5021459;28;20037;-62
2022/02/11 11:24:06;;;;;;;19.92;10.60;;;5.40;99.90;;;;;;5033979;28;20037;-60
2022/02/11 11:26:37;;;;;;;40.78;14.55;;;5.50;99.90;;;;;;5028665;28;20064;-53
2022/02/11 11:29:15;;;;;;;62.20;18.95;;;5.60;99.90;;;;;;5027632;28;20027;-51
2022/02/11 11:32:03;;;;;;;58.47;19.90;;;5.90;99.90;;;;;;5019409;28;20034;-53
2022/02/11 11:34:33;;;;;;;51.28;17.48;;;6.10;99.90;;;;;;5033998;28;20611;-51
2022/02/11 11:37:10;;;;;;;22.35;9.05;;;6.20;99.90;;;;;;5018288;28;20052;-53
2022/02/11 11:39:37;;;;;;;24.83;8.60;;;6.20;99.90;;;;;;5034959;28;20018;-58
2022/02/11 11:42:07;;;;;;;16.33;7.07;;;6.10;99.90;;;;;;5024273;28;20089;-56
2022/02/11 11:44:43;;;;;;;17.08;6.78;;;6.00;99.90;;;;;;5023779;28;20033;-56
2022/02/11 11:47:13;;;;;;;18.80;7.15;;;5.80;99.90;;;;;;5017116;28;20025;-55
2022/02/11 11:49:41;;;;;;;14.75;6.97;;;5.70;99.90;;;;;;5010299;28;20050;-57
2022/02/11 11:52:09;;;;;;;15.50;7.70;;;5.70;99.90;;;;;;5017844;28;20038;-57
2022/02/11 11:54:36;;;;;;;12.88;6.18;;;5.70;99.90;;;;;;5009533;28;20041;-55
2022/02/11 11:57:09;;;;;;;19.55;7.95;;;5.70;99.90;;;;;;5021014;28;20025;-55
2022/02/11 11:59:55;;;;;;;16.85;7.30;;;5.80;99.90;;;;;;5028383;28;20437;-55
2022/02/11 12:02:35;;;;;;;18.38;7.25;;;5.70;99.90;;;;;;5007386;28;20034;-57
2022/02/11 12:05:02;;;;;;;17.33;6.93;;;5.70;99.90;;;;;;5028317;28;20799;-56
2022/02/11 12:07:35;;;;;;;20.20;7.05;;;5.70;99.90;;;;;;5020398;28;20038;-57
2022/02/11 12:10:06;;;;;;;20.40;7.07;;;5.70;99.90;;;;;;5028785;28;20291;-58
2022/02/11 12:12:35;;;;;;;18.42;6.43;;;6.50;99.90;;;;;;5020931;28;20028;-58
2022/02/11 12:15:03;;;;;;;17.95;7.60;;;7.50;99.90;;;;;;5026093;28;20303;-56
2022/02/11 12:17:29;;;;;;;16.50;6.93;;;7.80;99.90;;;;;;5021020;28;20026;-57
2022/02/11 12:19:56;;;;;;;16.17;7.47;;;8.10;99.90;;;;;;5027494;28;20517;-57
2022/02/11 12:22:24;;;;;;;14.10;6.85;;;7.80;99.90;;;;;;5015076;28;20038;-57
2022/02/11 12:27:41;;;;;;;17.23;7.55;;;7.00;99.90;;;;;;5029207;28;20079;-58
2022/02/11 12:30:15;;;;;;;15.23;6.65;;;7.00;99.90;;;;;;5020330;28;20037;-58
2022/02/11 12:32:44;;;;;;;13.30;7.13;;;7.10;99.90;;;;;;5029154;28;20109;-60
2022/02/11 12:35:37;;;;;;;14.23;7.78;;;6.90;99.90;;;;;;5019143;28;20049;-58
2022/02/11 12:38:04;;;;;;;16.10;8.05;;;6.70;99.90;;;;;;5017937;28;20038;-58
2022/02/11 12:40:36;;;;;;;17.38;9.50;;;6.60;99.90;;;;;;5021805;28;20030;-57
2022/02/11 12:43:07;;;;;;;16.67;9.37;;;6.50;99.90;;;;;;5020289;28;20037;-56
2022/02/11 12:45:38;;;;;;;17.92;10.10;;;6.30;99.90;;;;;;5028639;28;20163;-56
2022/02/11 12:48:09;;;;;;;21.45;10.23;;;6.20;99.90;;;;;;5019093;28;20538;-57
2022/02/11 12:50:38;;;;;;;21.95;10.75;;;6.10;99.90;;;;;;5029150;28;20037;-56
2022/02/11 12:53:14;;;;;;;18.95;11.68;;;6.00;99.90;;;;;;5020602;28;20056;-54
2022/02/11 12:55:40;;;;;;;24.80;11.35;;;5.90;99.90;;;;;;5029031;28;20086;-57
2022/02/11 12:58:08;;;;;;;23.08;12.55;;;5.80;99.90;;;;;;5020176;28;20511;-58
2022/02/11 13:00:36;;;;;;;22.05;11.77;;;5.70;99.90;;;;;;5028463;28;20167;-58
2022/02/11 13:03:03;;;;;;;28.08;9.52;;;5.60;99.90;;;;;;5013659;28;20025;-57
2022/02/11 13:05:32;;;;;;;8.85;4.00;;;5.50;99.90;;;;;;5027683;28;20037;-59
2022/02/11 13:08:00;;;;;;;6.35;3.08;;;5.20;99.90;;;;;;5021873;28;20025;-57
2022/02/11 13:10:31;;;;;;;4.72;2.72;;;5.10;99.90;;;;;;5021194;28;20029;-58
2022/02/11 13:13:03;;;;;;;5.05;2.50;;;5.00;99.90;;;;;;5026167;28;20555;-58
2022/02/11 13:15:34;;;;;;;3.70;1.92;;;4.90;99.90;;;;;;5020425;28;20202;-59
2022/02/11 13:18:20;;;;;;;2.78;1.77;;;4.90;99.90;;;;;;5018107;28;20033;-58
2022/02/11 13:20:53;;;;;;;6.00;1.83;;;4.80;99.90;;;;;;5019576;28;20038;-58
2022/02/11 13:23:21;;;;;;;4.70;1.85;;;4.80;99.90;;;;;;5029142;28;20033;-58
2022/02/11 13:25:49;;;;;;;6.00;2.08;;;4.80;99.90;;;;;;5025742;28;20124;-58
2022/02/11 13:28:17;;;;;;;8.07;2.13;;;4.70;99.90;;;;;;5022388;28;20026;-59
2022/02/11 13:30:47;;;;;;;6.28;1.90;;;4.80;99.90;;;;;;5027884;28;20120;-57
2022/02/11 13:33:30;;;;;;;4.88;2.15;;;4.90;99.90;;;;;;5037315;28;20036;-58
2022/02/11 13:36:23;;;;;;;9.45;2.05;;;5.00;99.90;;;;;;5028003;28;20125;-58
2022/02/11 13:38:49;;;;;;;8.10;1.95;;;5.20;99.90;;;;;;5024460;28;20037;-58
2022/02/11 13:41:16;;;;;;;7.13;2.40;;;5.30;99.90;;;;;;5031790;28;20441;-58
2022/02/11 13:43:58;;;;;;;7.90;2.03;;;5.30;99.90;;;;;;5023436;28;20037;-58
2022/02/11 13:46:28;;;;;;;11.25;1.90;;;5.40;99.90;;;;;;5018952;28;20022;-59
2022/02/11 13:49:01;;;;;;;6.22;1.95;;;5.50;99.90;;;;;;5031212;28;20034;-59
2022/02/11 13:51:26;;;;;;;9.13;2.47;;;5.60;99.90;;;;;;5025766;28;20132;-59
2022/02/11 13:53:53;;;;;;;12.30;1.75;;;5.70;99.90;;;;;;5026297;28;20125;-59
2022/02/11 13:56:41;;;;;;;7.38;2.35;;;5.70;99.90;;;;;;5027010;28;20033;-58
2022/02/11 13:59:08;;;;;;;6.55;1.85;;;6.70;99.90;;;;;;5024621;28;20076;-59
2022/02/11 14:01:41;;;;;;;8.15;2.38;;;8.40;99.90;;;;;;5022577;28;20058;-58
2022/02/11 14:04:09;;;;;;;10.05;2.13;;;10.10;99.90;;;;;;5024711;28;20041;-58
2022/02/11 14:06:45;;;;;;;5.18;1.80;;;11.20;99.90;;;;;;5028402;28;20045;-59
2022/02/11 14:09:28;;;;;;;7.65;2.08;;;11.40;99.90;;;;;;5024992;28;20025;-59
2022/02/11 14:11:55;;;;;;;6.55;1.88;;;10.90;99.90;;;;;;5022439;28;20395;-59
2022/02/11 14:14:21;;;;;;;11.60;2.25;;;10.90;99.90;;;;;;5024960;28;20456;-58
2022/02/11 14:16:50;;;;;;;8.52;1.77;;;11.40;99.90;;;;;;5029533;28;20428;-59
2022/02/11 14:19:24;;;;;;;8.55;2.10;;;11.40;99.90;;;;;;5020032;28;20105;-59
2022/02/11 14:21:58;;;;;;;9.48;2.00;;;11.70;99.90;;;;;;5019784;28;20105;-60
2022/02/11 14:24:26;;;;;;;6.90;1.85;;;12.00;99.90;;;;;;5031077;28;20056;-61
2022/02/11 14:26:52;;;;;;;4.53;1.65;;;12.10;96.80;;;;;;5031347;28;20021;-59
2022/02/11 14:29:19;;;;;;;6.85;1.98;;;12.00;96.30;;;;;;5025410;28;20542;-61
2022/02/11 14:31:46;;;;;;;5.65;1.60;;;12.40;96.30;;;;;;5019749;28;20133;-61
2022/02/11 14:34:13;;;;;;;6.72;1.70;;;12.30;94.10;;;;;;5030116;28;20052;-59
2022/02/11 14:36:40;;;;;;;7.78;1.90;;;12.40;94.80;;;;;;5021964;28;20531;-62
2022/02/11 14:39:07;;;;;;;8.77;2.15;;;12.90;95.80;;;;;;5031409;28;20124;-59
2022/02/11 14:41:48;;;;;;;7.95;1.88;;;13.10;92.40;;;;;;5030341;28;20063;-61
2022/02/11 14:44:24;;;;;;;8.77;2.20;;;12.70;91.10;;;;;;5024489;28;20112;-60
2022/02/11 14:46:55;;;;;;;4.82;1.40;;;11.90;91.60;;;;;;5028203;28;20136;-59
2022/02/11 14:49:22;;;;;;;11.77;2.05;;;11.00;91.80;;;;;;5030892;28;20067;-58
2022/02/11 14:51:55;;;;;;;7.22;1.90;;;10.20;93.50;;;;;;5023735;28;20030;-61
2022/02/11 14:54:21;;;;;;;6.68;1.55;;;10.00;95.80;;;;;;5025298;28;20104;-61
2022/02/11 14:56:54;;;;;;;5.35;2.03;;;10.10;95.40;;;;;;5015803;28;20423;-58
2022/02/11 14:59:19;;;;;;;;;;;10.10;96.80;;;;;;5031941;28;20079;-59
2022/02/11 15:01:47;;;;;;;7.15;1.52;;;10.10;97.20;;;;;;5021804;28;19910;-59
2022/02/11 15:04:13;;;;;;;14.13;2.42;;;10.00;97.80;;;;;;5025990;28;20418;-59
2022/02/11 15:06:39;;;;;;;5.50;1.90;;;9.50;98.50;;;;;;5019897;28;20109;-58
2022/02/11 15:09:06;;;;;;;7.18;2.00;;;8.90;99.90;;;;;;5025170;28;20037;-60
2022/02/11 15:11:33;;;;;;;5.00;1.60;;;8.50;99.90;;;;;;5026784;28;20340;-58
2022/02/11 15:13:59;;;;;;;6.53;1.92;;;8.10;99.90;;;;;;5026939;28;20175;-55
2022/02/11 15:16:25;;;;;;;9.63;2.50;;;7.70;99.90;;;;;;5021778;28;20547;-54
2022/02/11 15:18:50;;;;;;;9.50;2.35;;;7.50;99.90;;;;;;5022398;28;20030;-54
2022/02/11 15:21:19;;;;;;;10.05;1.60;;;7.20;99.90;;;;;;5030476;28;20325;-56
2022/02/11 15:23:48;;;;;;;8.27;1.67;;;7.00;99.90;;;;;;5029466;28;20022;-54
2022/02/11 15:26:16;;;;;;;7.57;1.95;;;6.80;99.90;;;;;;5029931;28;20459;-55
2022/02/11 15:28:44;;;;;;;13.50;1.85;;;6.70;99.90;;;;;;5029721;28;20032;-53
2022/02/11 15:31:11;;;;;;;11.05;2.33;;;6.60;99.90;;;;;;5023107;28;20031;-55
2022/02/11 15:33:39;;;;;;;7.40;1.90;;;6.60;99.90;;;;;;5028587;28;20041;-57
2022/02/11 15:36:05;;;;;;;9.00;2.28;;;6.50;99.90;;;;;;5021858;28;20057;-56
2022/02/11 15:38:31;;;;;;;10.85;1.92;;;6.40;99.90;;;;;;5021752;28;20030;-57
2022/02/11 15:40:56;;;;;;;10.73;2.13;;;6.30;99.90;;;;;;5029258;28;20113;-58
2022/02/11 15:43:23;;;;;;;15.90;2.70;;;6.20;99.90;;;;;;5029294;28;20132;-58
2022/02/11 15:45:48;;;;;;;11.98;2.03;;;6.10;99.90;;;;;;5027665;28;20034;-59
2022/02/11 15:48:14;;;;;;;11.48;2.67;;;6.10;99.90;;;;;;5028761;28;20095;-59
2022/02/11 15:50:41;;;;;;;10.35;2.47;;;6.00;99.90;;;;;;5026637;28;20080;-58
2022/02/11 15:53:08;;;;;;;11.00;2.63;;;6.00;99.90;;;;;;5013822;28;20057;-57
2022/02/11 15:55:33;;;;;;;13.10;2.08;;;5.90;99.90;;;;;;5021459;28;20036;-59
2022/02/11 15:57:59;;;;;;;10.55;2.42;;;5.80;99.90;;;;;;5028464;28;20037;-59
2022/02/11 16:00:25;;;;;;;12.75;2.75;;;5.80;99.90;;;;;;5029543;28;20510;-58
2022/02/11 16:02:50;;;;;;;21.23;2.45;;;5.70;99.90;;;;;;5026197;28;20280;-58
2022/02/11 16:05:16;;;;;;;10.27;2.30;;;5.70;99.90;;;;;;5017514;28;20451;-59
2022/02/11 16:07:41;;;;;;;8.05;2.00;;;5.60;99.90;;;;;;5011630;28;20444;-58
2022/02/11 16:10:09;;;;;;;11.27;2.17;;;5.60;99.90;;;;;;5022058;28;20025;-59
2022/02/11 16:12:34;;;;;;;10.38;2.25;;;5.50;99.90;;;;;;5021088;28;20480;-58
2022/02/11 16:15:01;;;;;;;14.32;2.75;;;5.50;99.90;;;;;;5028667;28;20051;-57
2022/02/11 16:17:28;;;;;;;16.75;2.60;;;5.40;99.90;;;;;;5021878;28;20448;-60
2022/02/11 16:19:54;;;;;;;15.40;2.50;;;5.40;99.90;;;;;;5028245;28;20033;-58
2022/02/11 16:22:23;;;;;;;13.65;2.60;;;5.30;99.90;;;;;;5028594;28;20052;-58
2022/02/11 16:24:49;;;;;;;14.50;2.70;;;5.30;99.90;;;;;;5021188;28;20091;-60
2022/02/11 16:27:17;;;;;;;11.75;2.28;;;5.30;99.90;;;;;;5023027;28;20022;-58
2022/02/11 16:29:43;;;;;;;8.57;2.17;;;5.20;99.90;;;;;;5026345;28;20538;-57
2022/02/11 16:32:09;;;;;;;12.20;2.50;;;5.20;99.90;;;;;;5022470;28;20140;-57
2022/02/11 16:34:35;;;;;;;14.13;2.47;;;5.20;99.90;;;;;;5028309;28;20116;-58
2022/02/11 16:37:01;;;;;;;16.10;2.25;;;5.10;99.90;;;;;;5026967;28;20037;-59
2022/02/11 16:39:26;;;;;;;8.73;2.42;;;5.00;99.90;;;;;;5027557;28;20026;-58
2022/02/11 16:41:52;;;;;;;15.10;2.83;;;4.90;99.90;;;;;;5034582;28;20407;-59
2022/02/11 16:44:18;;;;;;;14.10;2.70;;;4.90;99.90;;;;;;5023508;28;20044;-63
2022/02/11 16:46:45;;;;;;;10.52;2.35;;;4.80;99.90;;;;;;5026413;28;20063;-58
2022/02/11 16:49:13;;;;;;;20.65;2.95;;;4.80;99.90;;;;;;5018418;28;20045;-59